Catàleg de serveis del Meteocat
Campanya meteocatpedra

Dades de l'estació automàtica Monells

?
?
Resum diari 23:00 TU
Dades diàries de l'estació meteorològica
Temperatura mitjana 25.0 °C
Temperatura màxima 32.4 °C 13:26 TU
Temperatura mínima 16.2 °C 23:29 TU
Humitat relativa mitjana 41%
Precipitació acumulada 0.0 mm
Ratxa màxima del vent (2 m) 27.0 km/h - 41º 9:36 TU
Irradiació solar global 24.8 MJ/m2

El tram horari està expressat en Temps Universal (TU). Cal sumar una hora en horari d'hivern i dues en horari d'estiu per passar a l'hora oficial.

Monells

Metadades estació meteorol´gica
Municipi Cruïlles, Monells i Sant Sadurní de l'Heura
Comarca Baix Empordà
Altitud 60 m
Data alta 04.03.1998
Estat actual Operativa
Dades de període
Període
TU
TM
°C
TX
°C
TN
°C
HRM
%
PPT
mm
VVM (2 m)
km/h
DVM (2 m)
graus
VVX (2 m)
km/h
RS
W/m2
00:00 - 00:30 18.7 18.9 18.4 70 0.0 2.9 206 6.8 0
00:30 - 01:00 18.9 19.4 18.7 69 0.0 3.2 239 7.6 0
01:00 - 01:30 19.1 19.4 18.8 68 0.0 1.8 200 4.7 0
01:30 - 02:00 21.3 23.5 18.8 51 0.0 2.9 46 10.4 0
02:00 - 02:30 21.9 22.9 21.6 48 0.0 2.2 110 10.1 0
02:30 - 03:00 23.2 23.4 23.0 41 0.0 4.7 8 9.7 0
03:00 - 03:30 22.8 23.0 22.6 43 0.0 3.2 17 9.4 0
03:30 - 04:00 22.8 22.9 22.7 43 0.0 5.8 349 11.9 0
04:00 - 04:30 22.3 22.7 22.2 44 0.0 2.5 354 6.5 0
04:30 - 05:00 22.0 22.3 21.3 45 0.0 3.2 320 11.9 0
05:00 - 05:30 21.1 22.0 20.0 48 0.0 2.5 299 4.3 4
05:30 - 06:00 19.7 20.7 19.3 55 0.0 1.4 242 5.0 37
06:00 - 06:30 20.8 21.5 20.3 52 0.0 1.1 223 5.0 101
06:30 - 07:00 21.9 22.3 21.5 50 0.0 0.7 343 4.3 122
07:00 - 07:30 22.4 22.7 22.3 49 0.0 3.2 308 9.4 172
07:30 - 08:00 24.0 26.0 22.7 43 0.0 6.1 326 17.3 417
08:00 - 08:30 26.1 26.9 25.6 35 0.0 7.6 355 15.1 551
08:30 - 09:00 27.4 28.1 26.8 31 0.0 9.7 351 22.0 638
09:00 - 09:30 28.7 29.9 27.7 26 0.0 11.5 12 26.3 713
09:30 - 10:00 29.9 30.6 29.2 21 0.0 13.0 31 27.0 781
10:00 - 10:30 30.4 31.1 29.7 21 0.0 11.5 39 22.7 833
10:30 - 11:00 30.9 31.5 30.3 19 0.0 10.1 35 24.5 870
11:00 - 11:30 31.5 31.9 30.8 19 0.0 8.6 24 21.6 894
11:30 - 12:00 31.9 32.2 31.3 20 0.0 9.4 37 20.9 898
12:00 - 12:30 31.7 32.2 31.3 23 0.0 10.4 55 25.6 889
12:30 - 13:00 31.7 32.2 31.2 22 0.0 9.4 59 26.6 870
13:00 - 13:30 31.7 32.4 31.0 23 0.0 9.0 64 21.2 835
13:30 - 14:00 31.8 32.3 31.5 25 0.0 8.6 66 19.8 786
14:00 - 14:30 31.6 32.1 31.0 27 0.0 6.8 66 18.0 720
14:30 - 15:00 31.2 32.3 30.8 26 0.0 10.1 58 20.2 654
15:00 - 15:30 31.3 31.6 30.9 24 0.0 11.2 51 20.2 573
15:30 - 16:00 31.2 31.8 30.7 25 0.0 7.9 62 23.0 480
16:00 - 16:30 30.5 30.8 30.1 26 0.0 5.0 123 16.6 385
16:30 - 17:00 30.3 30.7 29.9 27 0.0 4.0 97 14.8 287
17:00 - 17:30 29.7 30.2 29.3 28 0.0 4.3 163 10.8 190
17:30 - 18:00 28.9 29.3 28.3 31 0.0 3.2 146 9.0 95
18:00 - 18:30 27.5 28.3 26.4 36 0.0 0.7 127 5.8 19
18:30 - 19:00 24.5 26.4 22.7 43 0.0 1.1 254 4.3 0
19:00 - 19:30 22.7 23.4 22.0 47 0.0 2.5 333 5.8 0
19:30 - 20:00 21.3 23.1 20.2 52 0.0 2.2 232 5.4 0
20:00 - 20:30 20.2 20.5 19.7 55 0.0 2.2 222 5.0 0
20:30 - 21:00 19.2 19.6 18.7 59 0.0 1.4 286 4.7 0
21:00 - 21:30 18.3 18.9 17.9 62 0.0 3.6 231 7.6 0
21:30 - 22:00 17.9 18.2 17.5 64 0.0 1.4 235 4.3 0
22:00 - 22:30 17.2 17.5 16.9 67 0.0 2.9 220 5.0 0
22:30 - 23:00 16.6 16.9 16.3 70 0.0 3.2 237 6.1 0
23:00 - 23:30 16.5 16.8 16.2 71 0.0 3.2 230 5.8 0

Les dades en taronja només han passat un control de qualitat automàtic. Resta pendent la seva validació definitiva.